createdAt,value
2023-01-09T00:04:14.884Z,7.49
2023-01-09T00:09:19.100Z,7.51
2023-01-09T00:14:24.120Z,7.50
2023-01-09T00:19:27.021Z,7.47
2023-01-09T00:24:31.349Z,7.41
2023-01-09T00:29:34.159Z,7.40
2023-01-09T00:34:38.359Z,7.36
2023-01-09T00:39:43.775Z,7.35
2023-01-09T00:44:52.022Z,7.29
2023-01-09T00:49:58.771Z,6.92
2023-01-09T00:55:04.008Z,6.78
2023-01-09T01:00:08.607Z,6.64
2023-01-09T01:05:29.394Z,6.57
2023-01-09T01:10:33.706Z,6.49
2023-01-09T01:15:39.348Z,6.44
2023-01-09T01:20:42.541Z,6.37
2023-01-09T01:25:46.789Z,6.33
2023-01-09T01:30:49.574Z,6.31
2023-01-09T01:35:52.350Z,6.28
2023-01-09T01:40:56.892Z,6.21
2023-01-09T01:45:59.593Z,6.20
2023-01-09T01:51:05.844Z,6.15
2023-01-09T01:56:15.292Z,6.11
2023-01-09T02:01:19.879Z,6.06
2023-01-09T02:06:22.709Z,6.10
2023-01-09T02:11:28.082Z,6.11
2023-01-09T02:16:47.763Z,6.10
2023-01-09T02:22:03.626Z,6.15
2023-01-09T02:27:18.200Z,6.17
2023-01-09T02:32:36.597Z,6.16
2023-01-09T02:37:48.445Z,6.15
2023-01-09T02:42:51.993Z,6.21
2023-01-09T02:47:56.132Z,6.21
2023-01-09T02:53:14.309Z,6.17
2023-01-09T02:58:28.327Z,6.16
2023-01-09T03:03:39.177Z,6.17
2023-01-09T03:08:45.871Z,6.19
2023-01-09T03:13:53.074Z,6.21
2023-01-09T03:18:57.475Z,6.22
2023-01-09T03:24:01.884Z,6.21
2023-01-09T03:29:04.813Z,6.23
2023-01-09T03:34:09.081Z,6.23
2023-01-09T03:39:11.843Z,6.23
2023-01-09T03:44:14.616Z,6.23
2023-01-09T03:49:19.252Z,6.21
2023-01-09T03:54:22.071Z,6.19
2023-01-09T03:59:25.898Z,6.13
2023-01-09T04:04:30.218Z,6.07
2023-01-09T04:09:33.160Z,6.02
2023-01-09T04:14:36.001Z,5.97
2023-01-09T04:19:40.287Z,5.94
2023-01-09T04:24:43.121Z,5.93
2023-01-09T04:29:46.048Z,5.91
2023-01-09T04:34:50.287Z,5.86
2023-01-09T04:39:55.869Z,5.81
2023-01-09T04:44:58.952Z,5.74
2023-01-09T04:50:03.488Z,5.69
2023-01-09T04:55:07.578Z,5.71
2023-01-09T05:00:12.362Z,5.72
2023-01-09T05:05:17.147Z,5.75
2023-01-09T05:10:19.917Z,5.69
2023-01-09T05:15:22.866Z,5.64
2023-01-09T05:20:26.982Z,5.60
2023-01-09T05:25:29.945Z,5.53
2023-01-09T05:30:35.304Z,5.49
2023-01-09T05:35:41.125Z,5.47
2023-01-09T05:40:43.843Z,5.46
2023-01-09T05:45:46.655Z,5.45
2023-01-09T05:50:50.891Z,5.43
2023-01-09T05:55:53.607Z,5.45
2023-01-09T06:01:00.447Z,5.42
2023-01-09T06:06:05.648Z,5.40
2023-01-09T06:11:08.368Z,5.41
2023-01-09T06:16:11.381Z,5.45
2023-01-09T06:21:15.549Z,5.52
2023-01-09T06:26:18.561Z,5.56
2023-01-09T06:31:22.462Z,5.60
2023-01-09T06:36:26.873Z,5.63
2023-01-09T06:41:29.958Z,5.61
2023-01-09T06:46:32.860Z,5.61
2023-01-09T06:51:37.216Z,5.63
2023-01-09T06:56:40.583Z,5.65
2023-01-09T07:01:47.168Z,5.66
2023-01-09T07:06:51.413Z,5.66
2023-01-09T07:11:54.183Z,5.72
2023-01-09T07:16:57.229Z,5.75
2023-01-09T07:22:01.315Z,5.77
2023-01-09T07:27:06.819Z,5.80
2023-01-09T07:32:09.603Z,5.82
2023-01-09T07:37:17.051Z,5.87
2023-01-09T07:42:23.296Z,5.91
2023-01-09T07:47:26.312Z,5.93
2023-01-09T07:52:30.457Z,5.95
2023-01-09T07:57:33.411Z,5.99
2023-01-09T08:02:36.465Z,6.03
2023-01-09T08:07:40.935Z,6.08
2023-01-09T08:12:45.680Z,6.18
2023-01-09T08:17:49.212Z,6.20
2023-01-09T08:22:55.026Z,6.26
2023-01-09T08:27:59.685Z,6.25
2023-01-09T08:33:05.765Z,6.30
2023-01-09T08:38:09.951Z,6.35
2023-01-09T08:43:32.821Z,6.38
2023-01-09T08:48:35.716Z,6.40
2023-01-09T08:53:40.019Z,6.39
2023-01-09T08:58:43.031Z,6.47
2023-01-09T09:03:46.664Z,6.62
2023-01-09T09:08:50.805Z,6.63
2023-01-09T09:13:54.259Z,6.81
2023-01-09T09:19:00.043Z,6.95
2023-01-09T09:24:04.376Z,6.88
2023-01-09T09:29:07.314Z,7.22
2023-01-09T09:34:10.812Z,7.37
2023-01-09T09:39:14.921Z,7.17
2023-01-09T09:44:52.658Z,7.00
2023-01-09T09:50:07.689Z,7.09
2023-01-09T09:55:19.314Z,7.19
2023-01-09T10:00:24.693Z,7.33
2023-01-09T10:05:35.725Z,7.28
2023-01-09T10:11:10.841Z,7.50
2023-01-09T10:16:28.994Z,7.66
2023-01-09T10:21:48.139Z,7.60
2023-01-09T10:26:54.119Z,7.47
2023-01-09T10:32:14.481Z,7.45
2023-01-09T10:37:24.148Z,7.40
2023-01-09T10:42:33.791Z,7.37
2023-01-09T10:47:40.495Z,7.36
2023-01-09T10:52:44.001Z,7.35
2023-01-09T10:57:51.808Z,7.43
2023-01-09T11:02:55.959Z,7.63
2023-01-09T11:08:02.979Z,7.66
2023-01-09T11:13:19.317Z,7.61
2023-01-09T11:18:25.700Z,7.57
2023-01-09T11:23:31.640Z,7.64
2023-01-09T11:28:35.910Z,7.71
2023-01-09T11:33:43.903Z,7.68
2023-01-09T11:38:50.774Z,7.81
2023-01-09T11:43:58.532Z,7.72
2023-01-09T11:49:04.416Z,7.91
2023-01-09T11:54:21.903Z,7.99
2023-01-09T11:59:31.887Z,7.94
2023-01-09T12:04:39.842Z,7.82
2023-01-09T12:09:53.728Z,8.02
2023-01-09T12:15:15.107Z,8.07
2023-01-09T12:20:40.165Z,7.82
2023-01-09T12:25:52.869Z,7.73
2023-01-09T12:31:14.127Z,7.65
2023-01-09T12:36:25.439Z,7.65
2023-01-09T12:41:49.601Z,7.70
2023-01-09T12:47:06.365Z,7.57
2023-01-09T12:52:13.864Z,7.64
2023-01-09T12:57:23.572Z,7.64
2023-01-09T13:02:33.753Z,7.57
2023-01-09T13:07:43.230Z,7.49
2023-01-09T13:12:49.666Z,7.33
2023-01-09T13:18:00.988Z,7.22
2023-01-09T13:23:05.973Z,7.10
2023-01-09T13:28:20.908Z,7.14
2023-01-09T13:33:30.038Z,7.01
2023-01-09T13:38:35.353Z,6.92
2023-01-09T13:43:54.385Z,6.86
2023-01-09T13:48:58.572Z,7.01
2023-01-09T13:54:01.435Z,6.94
2023-01-09T13:59:24.916Z,6.91
2023-01-09T14:04:41.953Z,6.91
2023-01-09T14:09:47.882Z,6.80
2023-01-09T14:14:54.834Z,6.76
2023-01-09T14:20:03.115Z,6.70
2023-01-09T14:25:10.036Z,6.66
2023-01-09T14:30:33.140Z,6.66
2023-01-09T14:35:42.911Z,6.64
2023-01-09T14:40:49.621Z,6.52
2023-01-09T14:45:55.582Z,6.39
2023-01-09T14:51:00.126Z,6.24
2023-01-09T14:56:06.665Z,6.16
2023-01-09T15:01:19.375Z,6.13
2023-01-09T15:06:26.449Z,5.93
2023-01-09T15:11:30.216Z,5.76
2023-01-09T15:16:33.769Z,5.72
2023-01-09T15:21:37.968Z,5.70
2023-01-09T15:26:41.115Z,5.67
2023-01-09T15:31:50.460Z,5.63
2023-01-09T15:36:54.903Z,5.68
2023-01-09T15:42:18.853Z,5.65
2023-01-09T15:47:28.046Z,5.68
2023-01-09T15:52:32.774Z,5.68
2023-01-09T15:57:35.794Z,5.67
2023-01-09T16:02:56.084Z,5.67
2023-01-09T16:08:01.925Z,5.65
2023-01-09T16:13:04.808Z,5.61
2023-01-09T16:18:19.154Z,5.57
2023-01-09T16:23:30.686Z,5.55
2023-01-09T16:28:33.825Z,5.54
2023-01-09T16:33:37.656Z,5.49
2023-01-09T16:38:44.626Z,5.53
2023-01-09T16:43:48.058Z,5.51
2023-01-09T16:48:55.358Z,5.42
2023-01-09T16:54:00.054Z,5.44
2023-01-09T16:59:03.001Z,5.45
2023-01-09T17:04:12.652Z,5.42
2023-01-09T17:09:18.917Z,5.39
2023-01-09T17:14:22.573Z,5.35
2023-01-09T17:19:25.425Z,5.30
2023-01-09T17:24:48.019Z,5.28
2023-01-09T17:29:50.826Z,5.24
2023-01-09T17:34:53.730Z,5.19
2023-01-09T17:40:04.108Z,5.15
2023-01-09T17:45:08.444Z,5.10
2023-01-09T17:50:18.504Z,5.11
2023-01-09T17:55:22.630Z,5.10
2023-01-09T18:00:28.396Z,5.09
2023-01-09T18:05:36.950Z,5.04
2023-01-09T18:10:43.021Z,5.01
2023-01-09T18:15:47.429Z,5.01
2023-01-09T18:20:50.959Z,4.99
2023-01-09T18:25:55.181Z,4.97
2023-01-09T18:30:59.160Z,4.94
2023-01-09T18:36:07.152Z,4.96
2023-01-09T18:41:11.552Z,4.97
2023-01-09T18:46:16.182Z,4.95
2023-01-09T18:51:18.945Z,4.93
2023-01-09T18:56:24.795Z,4.95
2023-01-09T19:01:29.134Z,4.96
2023-01-09T19:06:32.311Z,4.96
2023-01-09T19:11:44.262Z,4.95
2023-01-09T19:16:46.995Z,4.91
2023-01-09T19:21:49.888Z,4.86
2023-01-09T19:26:54.626Z,4.85
2023-01-09T19:31:58.697Z,4.84
2023-01-09T19:37:01.722Z,4.82
2023-01-09T19:42:07.489Z,4.81
2023-01-09T19:47:14.736Z,4.78
2023-01-09T19:52:22.002Z,4.77
2023-01-09T19:57:30.144Z,4.73
2023-01-09T20:02:33.785Z,4.72
2023-01-09T20:07:37.208Z,4.72
2023-01-09T20:12:42.591Z,4.75
2023-01-09T20:17:45.881Z,4.77
2023-01-09T20:22:48.671Z,4.77
2023-01-09T20:27:52.837Z,4.81
2023-01-09T20:32:55.785Z,4.76
2023-01-09T20:37:58.878Z,4.77
2023-01-09T20:43:03.767Z,4.74
2023-01-09T20:48:07.105Z,4.79
2023-01-09T20:53:09.916Z,4.81
2023-01-09T20:58:14.202Z,4.82
2023-01-09T21:03:17.184Z,4.85
2023-01-09T21:08:20.012Z,4.85
2023-01-09T21:13:24.163Z,4.88
2023-01-09T21:18:26.960Z,4.83
2023-01-09T21:23:30.906Z,4.81
2023-01-09T21:28:41.679Z,4.75
2023-01-09T21:33:45.056Z,4.69
2023-01-09T21:38:48.767Z,4.72
2023-01-09T21:44:10.449Z,4.73
2023-01-09T21:49:13.356Z,4.75
2023-01-09T21:54:16.371Z,4.73
2023-01-09T21:59:21.261Z,4.76
2023-01-09T22:04:28.229Z,4.80
2023-01-09T22:09:30.956Z,4.81
2023-01-09T22:14:35.141Z,4.82
2023-01-09T22:19:37.999Z,4.82
2023-01-09T22:24:41.284Z,4.84
2023-01-09T22:29:45.355Z,4.81
2023-01-09T22:34:48.156Z,4.80
2023-01-09T22:39:50.998Z,4.82
2023-01-09T22:44:55.179Z,4.84
2023-01-09T22:49:57.967Z,4.86
2023-01-09T22:55:00.837Z,4.87
2023-01-09T23:00:08.366Z,4.87
2023-01-09T23:05:12.320Z,4.88
2023-01-09T23:10:15.098Z,4.85
2023-01-09T23:15:19.430Z,4.82
2023-01-09T23:20:22.196Z,4.78
2023-01-09T23:25:24.940Z,4.74
2023-01-09T23:30:28.998Z,4.72
2023-01-09T23:35:31.801Z,4.67
2023-01-09T23:40:36.840Z,4.67
2023-01-09T23:45:42.583Z,4.68
2023-01-09T23:50:50.046Z,4.65
2023-01-09T23:55:55.596Z,4.66
